sensor_id;sensor_type;location;lat;lon;timestamp;pressure;altitude;pressure_sealevel;temperature;humidity
67457;BME280;54319;52.038;4.640;2023-03-18T00:00:48;100910.44;;;9.85;84.24
67457;BME280;54319;52.038;4.640;2023-03-18T00:03:15;100907.28;;;9.82;84.18
67457;BME280;54319;52.038;4.640;2023-03-18T00:05:43;100913.34;;;9.77;84.04
67457;BME280;54319;52.038;4.640;2023-03-18T00:08:10;100910.00;;;9.75;83.98
67457;BME280;54319;52.038;4.640;2023-03-18T00:10:37;100917.72;;;9.72;84.12
67457;BME280;54319;52.038;4.640;2023-03-18T00:13:05;100922.75;;;9.68;83.91
67457;BME280;54319;52.038;4.640;2023-03-18T00:15:31;100882.84;;;9.47;84.52
67457;BME280;54319;52.038;4.640;2023-03-18T00:17:58;100918.09;;;9.62;84.57
67457;BME280;54319;52.038;4.640;2023-03-18T00:20:26;100883.69;;;9.40;84.62
67457;BME280;54319;52.038;4.640;2023-03-18T00:23:05;100910.78;;;9.62;84.79
67457;BME280;54319;52.038;4.640;2023-03-18T00:25:32;100917.91;;;9.63;85.55
67457;BME280;54319;52.038;4.640;2023-03-18T00:27:59;100915.38;;;9.62;85.38
67457;BME280;54319;52.038;4.640;2023-03-18T00:30:26;100922.09;;;9.59;86.21
67457;BME280;54319;52.038;4.640;2023-03-18T00:32:54;100909.06;;;9.54;85.92
67457;BME280;54319;52.038;4.640;2023-03-18T00:35:23;100923.97;;;9.59;85.80
67457;BME280;54319;52.038;4.640;2023-03-18T00:37:52;100898.78;;;9.43;86.17
67457;BME280;54319;52.038;4.640;2023-03-18T00:40:20;100924.19;;;9.57;86.54
67457;BME280;54319;52.038;4.640;2023-03-18T00:42:54;100921.66;;;9.55;86.55
67457;BME280;54319;52.038;4.640;2023-03-18T00:45:32;100911.97;;;9.46;86.41
67457;BME280;54319;52.038;4.640;2023-03-18T00:47:59;100912.63;;;9.48;86.65
67457;BME280;54319;52.038;4.640;2023-03-18T00:50:25;100910.50;;;9.44;86.23
67457;BME280;54319;52.038;4.640;2023-03-18T00:52:52;100915.94;;;9.44;86.29
67457;BME280;54319;52.038;4.640;2023-03-18T00:55:20;100918.88;;;9.42;86.19
67457;BME280;54319;52.038;4.640;2023-03-18T00:57:48;100916.34;;;9.40;86.53
67457;BME280;54319;52.038;4.640;2023-03-18T01:00:16;100905.22;;;9.35;86.59
67457;BME280;54319;52.038;4.640;2023-03-18T01:02:43;100908.59;;;9.37;86.52
67457;BME280;54319;52.038;4.640;2023-03-18T01:05:10;100912.16;;;9.38;86.56
67457;BME280;54319;52.038;4.640;2023-03-18T01:07:37;100903.38;;;9.36;86.70
67457;BME280;54319;52.038;4.640;2023-03-18T01:10:05;100892.84;;;9.26;86.60
67457;BME280;54319;52.038;4.640;2023-03-18T01:12:33;100910.44;;;9.30;86.55
67457;BME280;54319;52.038;4.640;2023-03-18T01:15:00;100904.13;;;9.23;86.28
67457;BME280;54319;52.038;4.640;2023-03-18T01:17:27;100907.25;;;9.20;86.50
67457;BME280;54319;52.038;4.640;2023-03-18T01:19:53;100904.31;;;9.15;86.61
67457;BME280;54319;52.038;4.640;2023-03-18T01:22:20;100909.13;;;9.12;86.73
67457;BME280;54319;52.038;4.640;2023-03-18T01:24:47;100903.63;;;9.06;86.79
67457;BME280;54319;52.038;4.640;2023-03-18T01:27:14;100911.19;;;9.10;86.89
67457;BME280;54319;52.038;4.640;2023-03-18T01:29:42;100902.78;;;9.05;87.11
67457;BME280;54319;52.038;4.640;2023-03-18T01:32:10;100904.72;;;9.11;88.24
67457;BME280;54319;52.038;4.640;2023-03-18T01:34:37;100904.94;;;9.17;88.26
67457;BME280;54319;52.038;4.640;2023-03-18T01:37:06;100911.66;;;9.21;88.54
67457;BME280;54319;52.038;4.640;2023-03-18T01:39:34;100906.41;;;9.19;88.90
67457;BME280;54319;52.038;4.640;2023-03-18T01:42:01;100923.41;;;9.28;88.61
67457;BME280;54319;52.038;4.640;2023-03-18T01:44:29;100929.50;;;9.30;88.74
67457;BME280;54319;52.038;4.640;2023-03-18T01:46:59;100865.06;;;9.02;88.51
67457;BME280;54319;52.038;4.640;2023-03-18T01:49:27;100919.28;;;9.39;88.40
67457;BME280;54319;52.038;4.640;2023-03-18T01:51:59;100913.84;;;9.46;88.66
67457;BME280;54319;52.038;4.640;2023-03-18T01:54:29;100891.22;;;9.38;88.00
67457;BME280;54319;52.038;4.640;2023-03-18T01:56:57;100908.44;;;9.52;88.20
67457;BME280;54319;52.038;4.640;2023-03-18T01:59:28;100905.09;;;9.50;87.83
67457;BME280;54319;52.038;4.640;2023-03-18T02:02:02;100912.66;;;9.55;88.04
67457;BME280;54319;52.038;4.640;2023-03-18T02:04:33;100912.66;;;9.55;87.87
67457;BME280;54319;52.038;4.640;2023-03-18T02:07:02;100915.38;;;9.55;87.96
67457;BME280;54319;52.038;4.640;2023-03-18T02:09:29;100916.44;;;9.54;88.04
67457;BME280;54319;52.038;4.640;2023-03-18T02:11:57;100910.13;;;9.53;87.95
67457;BME280;54319;52.038;4.640;2023-03-18T02:14:25;100924.19;;;9.57;88.02
67457;BME280;54319;52.038;4.640;2023-03-18T02:16:57;100927.09;;;9.55;88.09
67457;BME280;54319;52.038;4.640;2023-03-18T02:19:46;100914.72;;;9.46;88.44
67457;BME280;54319;52.038;4.640;2023-03-18T02:22:23;100927.72;;;9.51;88.53
67457;BME280;54319;52.038;4.640;2023-03-18T02:24:59;100920.16;;;9.46;88.77
67457;BME280;54319;52.038;4.640;2023-03-18T02:27:32;100908.19;;;9.40;88.30
67457;BME280;54319;52.038;4.640;2023-03-18T02:30:05;100898.75;;;9.36;88.62
67457;BME280;54319;52.038;4.640;2023-03-18T02:32:33;100928.50;;;9.45;88.82
67457;BME280;54319;52.038;4.640;2023-03-18T02:35:03;100903.91;;;9.24;88.71
67457;BME280;54319;52.038;4.640;2023-03-18T02:37:31;100932.69;;;9.40;88.99
67457;BME280;54319;52.038;4.640;2023-03-18T02:40:11;100908.78;;;9.29;88.78
67457;BME280;54319;52.038;4.640;2023-03-18T02:42:40;100932.28;;;9.44;88.87
67457;BME280;54319;52.038;4.640;2023-03-18T02:45:18;100920.13;;;9.39;88.80
67457;BME280;54319;52.038;4.640;2023-03-18T02:47:50;100914.25;;;9.36;89.01
67457;BME280;54319;52.038;4.640;2023-03-18T02:50:18;100929.38;;;9.45;89.21
67457;BME280;54319;52.038;4.640;2023-03-18T02:52:45;100933.97;;;9.45;89.15
67457;BME280;54319;52.038;4.640;2023-03-18T02:55:12;100928.50;;;9.45;88.70
67457;BME280;54319;52.038;4.640;2023-03-18T02:57:41;100926.66;;;9.45;88.99
67457;BME280;54319;52.038;4.640;2023-03-18T03:00:09;100931.25;;;9.45;88.90
67457;BME280;54319;52.038;4.640;2023-03-18T03:02:35;100935.63;;;9.46;89.01
67457;BME280;54319;52.038;4.640;2023-03-18T03:05:02;100923.88;;;9.38;88.90
67457;BME280;54319;52.038;4.640;2023-03-18T03:07:29;100935.63;;;9.46;89.12
67457;BME280;54319;52.038;4.640;2023-03-18T03:09:56;100943.16;;;9.44;89.15
67457;BME280;54319;52.038;4.640;2023-03-18T03:12:24;100937.75;;;9.50;89.09
67457;BME280;54319;52.038;4.640;2023-03-18T03:14:52;100935.63;;;9.46;89.36
67457;BME280;54319;52.038;4.640;2023-03-18T03:17:19;100926.19;;;9.41;89.24
67457;BME280;54319;52.038;4.640;2023-03-18T03:19:46;100939.66;;;9.50;89.44
67457;BME280;54319;52.038;4.640;2023-03-18T03:22:13;100944.06;;;9.51;89.32
67457;BME280;54319;52.038;4.640;2023-03-18T03:24:41;100926.44;;;9.47;89.18
67457;BME280;54319;52.038;4.640;2023-03-18T03:27:09;100918.03;;;9.35;89.29
67457;BME280;54319;52.038;4.640;2023-03-18T03:29:36;100940.94;;;9.54;89.20
67457;BME280;54319;52.038;4.640;2023-03-18T03:32:05;100943.66;;;9.54;88.99
67457;BME280;54319;52.038;4.640;2023-03-18T03:34:32;100942.38;;;9.50;89.16
67457;BME280;54319;52.038;4.640;2023-03-18T03:36:59;100952.66;;;9.54;89.09
67457;BME280;54319;52.038;4.640;2023-03-18T03:39:26;100948.47;;;9.59;89.24
67457;BME280;54319;52.038;4.640;2023-03-18T03:41:52;100954.97;;;9.58;89.57
67457;BME280;54319;52.038;4.640;2023-03-18T03:44:19;100949.53;;;9.58;89.74
67457;BME280;54319;52.038;4.640;2023-03-18T03:46:46;100961.28;;;9.58;89.75
67457;BME280;54319;52.038;4.640;2023-03-18T03:49:14;100962.53;;;9.62;89.72
67457;BME280;54319;52.038;4.640;2023-03-18T03:51:41;100943.44;;;9.49;89.93
67457;BME280;54319;52.038;4.640;2023-03-18T03:54:09;100936.09;;;9.49;90.61
67457;BME280;54319;52.038;4.640;2023-03-18T03:56:37;100955.41;;;9.61;91.09
67457;BME280;54319;52.038;4.640;2023-03-18T03:59:04;100956.28;;;9.68;90.96
67457;BME280;54319;52.038;4.640;2023-03-18T04:01:30;100961.72;;;9.68;92.47
67457;BME280;54319;52.038;4.640;2023-03-18T04:04:00;100958.78;;;9.63;92.81
67457;BME280;54319;52.038;4.640;2023-03-18T04:06:29;100960.03;;;9.67;93.03
67457;BME280;54319;52.038;4.640;2023-03-18T04:08:55;100955.84;;;9.65;93.88
67457;BME280;54319;52.038;4.640;2023-03-18T04:11:22;100960.63;;;9.63;94.16
67457;BME280;54319;52.038;4.640;2023-03-18T04:13:49;100954.16;;;9.64;94.04
67457;BME280;54319;52.038;4.640;2023-03-18T04:16:16;100964.22;;;9.63;94.76
67457;BME280;54319;52.038;4.640;2023-03-18T04:18:43;100945.94;;;9.50;94.71
67457;BME280;54319;52.038;4.640;2023-03-18T04:21:09;100970.91;;;9.61;94.23
67457;BME280;54319;52.038;4.640;2023-03-18T04:23:37;100969.44;;;9.65;94.32
67457;BME280;54319;52.038;4.640;2023-03-18T04:26:04;100962.91;;;9.52;94.60
67457;BME280;54319;52.038;4.640;2023-03-18T04:28:31;100978.25;;;9.60;95.15
67457;BME280;54319;52.038;4.640;2023-03-18T04:30:58;100980.34;;;9.58;95.20
67457;BME280;54319;52.038;4.640;2023-03-18T04:33:25;100980.53;;;9.56;95.66
67457;BME280;54319;52.038;4.640;2023-03-18T04:35:52;100976.34;;;9.54;95.52
67457;BME280;54319;52.038;4.640;2023-03-18T04:38:19;100989.56;;;9.57;95.37
67457;BME280;54319;52.038;4.640;2023-03-18T04:40:47;101000.84;;;9.54;95.50
67457;BME280;54319;52.038;4.640;2023-03-18T04:43:13;100971.63;;;9.34;95.66
67457;BME280;54319;52.038;4.640;2023-03-18T04:45:40;101015.28;;;9.54;96.06
67457;BME280;54319;52.038;4.640;2023-03-18T04:48:07;101021.78;;;9.53;96.28
67457;BME280;54319;52.038;4.640;2023-03-18T04:50:34;101023.28;;;9.56;96.10
67457;BME280;54319;52.038;4.640;2023-03-18T04:53:01;101013.56;;;9.47;96.08
67457;BME280;54319;52.038;4.640;2023-03-18T04:55:28;101021.72;;;9.47;96.08
67457;BME280;54319;52.038;4.640;2023-03-18T04:57:56;101025.75;;;9.51;96.40
67457;BME280;54319;52.038;4.640;2023-03-18T05:00:23;100982.22;;;9.22;96.55
67457;BME280;54319;52.038;4.640;2023-03-18T05:02:51;101027.84;;;9.49;96.58
67457;BME280;54319;52.038;4.640;2023-03-18T05:05:17;101022.41;;;9.49;96.36
67457;BME280;54319;52.038;4.640;2023-03-18T05:07:44;101035.34;;;9.47;96.48
67457;BME280;54319;52.038;4.640;2023-03-18T05:10:11;101036.59;;;9.44;96.29
67457;BME280;54319;52.038;4.640;2023-03-18T05:12:37;101028.63;;;9.43;96.67
67457;BME280;54319;52.038;4.640;2023-03-18T05:15:06;101026.31;;;9.39;96.38
67457;BME280;54319;52.038;4.640;2023-03-18T05:17:33;101034.69;;;9.38;96.33
67457;BME280;54319;52.038;4.640;2023-03-18T05:20:00;101042.41;;;9.34;96.95
67457;BME280;54319;52.038;4.640;2023-03-18T05:22:27;101031.13;;;9.37;96.71
67457;BME280;54319;52.038;4.640;2023-03-18T05:24:54;101024.19;;;9.35;96.70
67457;BME280;54319;52.038;4.640;2023-03-18T05:27:20;101021.03;;;9.31;96.89
67457;BME280;54319;52.038;4.640;2023-03-18T05:29:48;101007.56;;;9.23;96.74
67457;BME280;54319;52.038;4.640;2023-03-18T05:32:16;101018.06;;;9.26;96.81
67457;BME280;54319;52.038;4.640;2023-03-18T05:34:42;101013.03;;;9.23;96.51
67457;BME280;54319;52.038;4.640;2023-03-18T05:37:11;101023.06;;;9.22;96.46
67457;BME280;54319;52.038;4.640;2023-03-18T05:39:39;101005.13;;;9.06;96.77
67457;BME280;54319;52.038;4.640;2023-03-18T05:42:06;101023.22;;;9.14;96.62
67457;BME280;54319;52.038;4.640;2023-03-18T05:44:33;101007.44;;;9.03;96.79
67457;BME280;54319;52.038;4.640;2023-03-18T05:47:00;101028.47;;;9.16;97.08
67457;BME280;54319;52.038;4.640;2023-03-18T05:49:28;100995.06;;;9.00;97.22
67457;BME280;54319;52.038;4.640;2023-03-18T05:51:56;101030.19;;;9.23;97.59
67457;BME280;54319;52.038;4.640;2023-03-18T05:54:23;101020.31;;;9.22;97.44
67457;BME280;54319;52.038;4.640;2023-03-18T05:56:50;101020.31;;;9.22;97.56
67457;BME280;54319;52.038;4.640;2023-03-18T05:59:18;101015.75;;;9.23;97.53
67457;BME280;54319;52.038;4.640;2023-03-18T06:01:45;101016.78;;;9.22;97.61
67457;BME280;54319;52.038;4.640;2023-03-18T06:04:11;101027.03;;;9.20;97.58
67457;BME280;54319;52.038;4.640;2023-03-18T06:06:39;101029.13;;;9.18;97.72
67457;BME280;54319;52.038;4.640;2023-03-18T06:09:07;101031.59;;;9.12;97.55
67457;BME280;54319;52.038;4.640;2023-03-18T06:11:34;101016.56;;;8.95;97.53
67457;BME280;54319;52.038;4.640;2023-03-18T06:14:01;101039.25;;;9.02;97.80
67457;BME280;54319;52.038;4.640;2023-03-18T06:16:28;101047.00;;;9.05;98.21
67457;BME280;54319;52.038;4.640;2023-03-18T06:18:55;101045.06;;;8.99;97.90
67457;BME280;54319;52.038;4.640;2023-03-18T06:21:22;101038.81;;;8.98;98.47
67457;BME280;54319;52.038;4.640;2023-03-18T06:23:50;101041.47;;;8.92;98.23
67457;BME280;54319;52.038;4.640;2023-03-18T06:26:17;101058.94;;;9.04;99.08
67457;BME280;54319;52.038;4.640;2023-03-18T06:28:44;101058.94;;;9.04;98.88
67457;BME280;54319;52.038;4.640;2023-03-18T06:31:11;101068.38;;;9.08;99.35
67457;BME280;54319;52.038;4.640;2023-03-18T06:33:38;101078.44;;;9.08;99.05
67457;BME280;54319;52.038;4.640;2023-03-18T06:36:05;101075.91;;;9.06;99.05
67457;BME280;54319;52.038;4.640;2023-03-18T06:38:32;101077.59;;;9.07;98.84
67457;BME280;54319;52.038;4.640;2023-03-18T06:41:01;101063.28;;;8.98;99.13
67457;BME280;54319;52.038;4.640;2023-03-18T06:43:27;101089.00;;;9.18;99.26
67457;BME280;54319;52.038;4.640;2023-03-18T06:45:55;101101.16;;;9.22;98.95
67457;BME280;54319;52.038;4.640;2023-03-18T06:48:23;101091.75;;;9.24;99.08
67457;BME280;54319;52.038;4.640;2023-03-18T06:50:51;101093.06;;;9.29;98.97
67457;BME280;54319;52.038;4.640;2023-03-18T06:53:18;101101.66;;;9.32;98.95
67457;BME280;54319;52.038;4.640;2023-03-18T06:55:45;101093.88;;;9.29;98.51
67457;BME280;54319;52.038;4.640;2023-03-18T06:58:14;101100.22;;;9.36;98.62
67457;BME280;54319;52.038;4.640;2023-03-18T07:00:41;101089.53;;;9.35;98.83
67457;BME280;54319;52.038;4.640;2023-03-18T07:03:11;101099.72;;;9.54;98.65
67457;BME280;54319;52.038;4.640;2023-03-18T07:05:40;101075.78;;;9.43;98.37
67457;BME280;54319;52.038;4.640;2023-03-18T07:08:06;101096.69;;;9.71;98.09
67457;BME280;54319;52.038;4.640;2023-03-18T07:10:33;101093.13;;;10.12;97.73
67457;BME280;54319;52.038;4.640;2023-03-18T07:13:00;101102.16;;;10.62;94.74
67457;BME280;54319;52.038;4.640;2023-03-18T07:15:28;101083.09;;;11.02;93.08
67457;BME280;54319;52.038;4.640;2023-03-18T07:17:55;101108.28;;;11.38;88.74
67457;BME280;54319;52.038;4.640;2023-03-18T07:20:25;101110.81;;;11.60;89.19
67457;BME280;54319;52.038;4.640;2023-03-18T07:22:53;101109.50;;;11.76;87.66
67457;BME280;54319;52.038;4.640;2023-03-18T07:25:19;101111.00;;;11.58;88.03
67457;BME280;54319;52.038;4.640;2023-03-18T07:27:46;101108.09;;;11.39;87.79
67457;BME280;54319;52.038;4.640;2023-03-18T07:30:13;101111.03;;;11.24;89.39
67457;BME280;54319;52.038;4.640;2023-03-18T07:32:41;101106.81;;;11.15;90.01
67457;BME280;54319;52.038;4.640;2023-03-18T07:35:10;101113.13;;;11.09;89.94
67457;BME280;54319;52.038;4.640;2023-03-18T07:37:38;101106.19;;;11.13;90.65
67457;BME280;54319;52.038;4.640;2023-03-18T07:40:05;101108.50;;;11.23;90.86
67457;BME280;54319;52.038;4.640;2023-03-18T07:42:32;101106.41;;;11.11;90.75
67457;BME280;54319;52.038;4.640;2023-03-18T07:44:58;101108.91;;;11.13;90.50
67457;BME280;54319;52.038;4.640;2023-03-18T07:47:26;101105.78;;;11.29;89.30
67457;BME280;54319;52.038;4.640;2023-03-18T07:49:55;101102.59;;;11.53;88.65
67457;BME280;54319;52.038;4.640;2023-03-18T07:52:22;101104.88;;;11.76;88.27
67457;BME280;54319;52.038;4.640;2023-03-18T07:54:49;101107.78;;;12.01;87.21
67457;BME280;54319;52.038;4.640;2023-03-18T07:57:15;101106.47;;;12.11;85.21
67457;BME280;54319;52.038;4.640;2023-03-18T07:59:42;101109.09;;;12.38;84.92
67457;BME280;54319;52.038;4.640;2023-03-18T08:02:10;101114.16;;;13.05;83.77
67457;BME280;54319;52.038;4.640;2023-03-18T08:04:38;101124.38;;;13.49;80.67
67457;BME280;54319;52.038;4.640;2023-03-18T08:07:07;101125.09;;;13.63;78.79
67457;BME280;54319;52.038;4.640;2023-03-18T08:09:34;101116.06;;;13.81;77.06
67457;BME280;54319;52.038;4.640;2023-03-18T08:12:01;101109.22;;;14.09;76.47
67457;BME280;54319;52.038;4.640;2023-03-18T08:14:28;101120.84;;;14.41;75.16
67457;BME280;54319;52.038;4.640;2023-03-18T08:16:54;101121.53;;;14.18;73.89
67457;BME280;54319;52.038;4.640;2023-03-18T08:19:21;101119.72;;;13.93;75.03
67457;BME280;54319;52.038;4.640;2023-03-18T08:21:48;101114.47;;;13.48;77.17
67457;BME280;54319;52.038;4.640;2023-03-18T08:24:16;101112.75;;;13.28;79.05
67457;BME280;54319;52.038;4.640;2023-03-18T08:26:42;101110.53;;;13.11;79.53
67457;BME280;54319;52.038;4.640;2023-03-18T08:29:09;101110.81;;;13.03;80.63
67457;BME280;54319;52.038;4.640;2023-03-18T08:31:36;101119.66;;;13.05;80.24
67457;BME280;54319;52.038;4.640;2023-03-18T08:34:03;101109.25;;;12.88;81.04
67457;BME280;54319;52.038;4.640;2023-03-18T08:36:29;101102.03;;;12.94;81.25
67457;BME280;54319;52.038;4.640;2023-03-18T08:38:56;101129.41;;;12.94;80.72
67457;BME280;54319;52.038;4.640;2023-03-18T08:41:24;101132.84;;;13.15;80.74
67457;BME280;54319;52.038;4.640;2023-03-18T08:43:52;101135.28;;;12.66;80.77
67457;BME280;54319;52.038;4.640;2023-03-18T08:46:21;101139.25;;;12.70;81.08
67457;BME280;54319;52.038;4.640;2023-03-18T08:48:48;101143.38;;;12.86;81.44
67457;BME280;54319;52.038;4.640;2023-03-18T08:51:15;101143.25;;;13.06;80.42
67457;BME280;54319;52.038;4.640;2023-03-18T08:53:42;101154.50;;;13.23;79.95
67457;BME280;54319;52.038;4.640;2023-03-18T08:56:09;101160.59;;;13.25;79.86
67457;BME280;54319;52.038;4.640;2023-03-18T08:58:38;101162.75;;;13.42;79.23
67457;BME280;54319;52.038;4.640;2023-03-18T09:01:05;101109.94;;;13.09;78.23
67457;BME280;54319;52.038;4.640;2023-03-18T09:03:32;101156.44;;;13.48;78.32
67457;BME280;54319;52.038;4.640;2023-03-18T09:06:02;101153.09;;;13.39;77.42
67457;BME280;54319;52.038;4.640;2023-03-18T09:08:29;101163.72;;;13.29;78.04
67457;BME280;54319;52.038;4.640;2023-03-18T09:10:57;101162.59;;;13.11;78.20
67457;BME280;54319;52.038;4.640;2023-03-18T09:13:24;101137.34;;;13.02;78.15
67457;BME280;54319;52.038;4.640;2023-03-18T09:15:52;101159.22;;;13.09;78.49
67457;BME280;54319;52.038;4.640;2023-03-18T09:18:19;101179.38;;;12.90;79.13
67457;BME280;54319;52.038;4.640;2023-03-18T09:20:46;101196.28;;;12.80;80.35
67457;BME280;54319;52.038;4.640;2023-03-18T09:23:14;101167.41;;;12.84;79.66
67457;BME280;54319;52.038;4.640;2023-03-18T09:25:43;101182.97;;;12.83;79.78
67457;BME280;54319;52.038;4.640;2023-03-18T09:28:11;101177.63;;;13.27;79.60
67457;BME280;54319;52.038;4.640;2023-03-18T09:30:38;101176.28;;;13.37;78.43
67457;BME280;54319;52.038;4.640;2023-03-18T09:33:07;101173.34;;;13.38;78.18
67457;BME280;54319;52.038;4.640;2023-03-18T09:35:35;101172.53;;;13.63;78.07
67457;BME280;54319;52.038;4.640;2023-03-18T09:38:02;101168.16;;;13.81;76.88
67457;BME280;54319;52.038;4.640;2023-03-18T09:40:31;101159.72;;;14.01;76.21
67457;BME280;54319;52.038;4.640;2023-03-18T09:43:13;101164.97;;;14.21;76.58
67457;BME280;54319;52.038;4.640;2023-03-18T09:45:50;101161.56;;;14.26;75.13
67457;BME280;54319;52.038;4.640;2023-03-18T09:48:43;101169.41;;;14.41;74.85
67457;BME280;54319;52.038;4.640;2023-03-18T09:51:24;101174.91;;;14.03;74.88
67457;BME280;54319;52.038;4.640;2023-03-18T09:53:57;101169.06;;;13.93;75.47
67457;BME280;54319;52.038;4.640;2023-03-18T09:56:29;101174.22;;;14.27;75.46
67457;BME280;54319;52.038;4.640;2023-03-18T09:59:01;101170.75;;;14.31;74.52
67457;BME280;54319;52.038;4.640;2023-03-18T10:01:31;101170.69;;;14.19;73.35
67457;BME280;54319;52.038;4.640;2023-03-18T10:04:03;101180.38;;;14.41;74.18
67457;BME280;54319;52.038;4.640;2023-03-18T10:06:34;101180.78;;;14.26;73.97
67457;BME280;54319;52.038;4.640;2023-03-18T10:09:08;101181.69;;;14.38;73.23
67457;BME280;54319;52.038;4.640;2023-03-18T10:11:40;101172.16;;;14.22;73.83
67457;BME280;54319;52.038;4.640;2023-03-18T10:14:17;101182.38;;;14.15;74.13
67457;BME280;54319;52.038;4.640;2023-03-18T10:16:56;101178.50;;;14.23;74.18
67457;BME280;54319;52.038;4.640;2023-03-18T10:19:28;101184.41;;;14.01;72.62
67457;BME280;54319;52.038;4.640;2023-03-18T10:24:49;101181.72;;;13.94;74.96
67457;BME280;54319;52.038;4.640;2023-03-18T10:27:25;101182.94;;;13.98;74.52
67457;BME280;54319;52.038;4.640;2023-03-18T10:30:02;101183.25;;;13.90;75.46
67457;BME280;54319;52.038;4.640;2023-03-18T10:32:37;101185.81;;;13.66;76.03
67457;BME280;54319;52.038;4.640;2023-03-18T10:35:18;101180.50;;;13.90;76.08
67457;BME280;54319;52.038;4.640;2023-03-18T10:37:56;101188.41;;;13.80;74.90
67457;BME280;54319;52.038;4.640;2023-03-18T10:40:32;101181.38;;;13.65;75.30
67457;BME280;54319;52.038;4.640;2023-03-18T10:43:01;101197.41;;;13.87;75.39
67457;BME280;54319;52.038;4.640;2023-03-18T10:45:29;101194.38;;;13.95;74.71
67457;BME280;54319;52.038;4.640;2023-03-18T10:48:01;101197.28;;;14.00;74.51
67457;BME280;54319;52.038;4.640;2023-03-18T10:50:34;101195.31;;;14.08;73.62
67457;BME280;54319;52.038;4.640;2023-03-18T10:53:09;101194.06;;;13.85;74.33
67457;BME280;54319;52.038;4.640;2023-03-18T10:55:45;101152.91;;;13.66;74.19
67457;BME280;54319;52.038;4.640;2023-03-18T10:58:15;101181.72;;;13.75;74.59
67457;BME280;54319;52.038;4.640;2023-03-18T11:00:42;101195.22;;;13.96;74.42
67457;BME280;54319;52.038;4.640;2023-03-18T11:03:20;101192.25;;;13.97;73.37
67457;BME280;54319;52.038;4.640;2023-03-18T11:05:50;101194.53;;;14.00;73.90
67457;BME280;54319;52.038;4.640;2023-03-18T11:08:32;101191.97;;;13.80;74.22
67457;BME280;54319;52.038;4.640;2023-03-18T11:11:31;101194.41;;;13.44;76.36
67457;BME280;54319;52.038;4.640;2023-03-18T11:14:00;101194.41;;;13.44;77.94
67457;BME280;54319;52.038;4.640;2023-03-18T11:16:36;101186.19;;;13.38;78.24
67457;BME280;54319;52.038;4.640;2023-03-18T11:19:24;101187.53;;;13.28;79.24
67457;BME280;54319;52.038;4.640;2023-03-18T11:22:19;101189.00;;;13.31;78.95
67457;BME280;54319;52.038;4.640;2023-03-18T11:25:00;101187.88;;;13.45;79.23
67457;BME280;54319;52.038;4.640;2023-03-18T11:27:32;101185.44;;;13.56;80.19
67457;BME280;54319;52.038;4.640;2023-03-18T11:30:08;101189.16;;;13.68;79.82
67457;BME280;54319;52.038;4.640;2023-03-18T11:32:39;101187.22;;;13.94;79.82
67457;BME280;54319;52.038;4.640;2023-03-18T11:35:18;101183.34;;;14.02;77.61
67457;BME280;54319;52.038;4.640;2023-03-18T11:37:48;101179.31;;;14.04;77.44
67457;BME280;54319;52.038;4.640;2023-03-18T11:40:22;101183.28;;;14.09;75.58
67457;BME280;54319;52.038;4.640;2023-03-18T11:42:54;101182.31;;;14.22;76.22
67457;BME280;54319;52.038;4.640;2023-03-18T11:45:29;101191.97;;;14.24;75.19
67457;BME280;54319;52.038;4.640;2023-03-18T11:47:58;101181.00;;;14.06;74.42
67457;BME280;54319;52.038;4.640;2023-03-18T11:50:26;101184.72;;;13.93;75.15
67457;BME280;54319;52.038;4.640;2023-03-18T11:53:00;101181.22;;;14.04;74.46
67457;BME280;54319;52.038;4.640;2023-03-18T11:55:38;101180.69;;;14.14;74.17
67457;BME280;54319;52.038;4.640;2023-03-18T11:58:28;101175.50;;;14.24;74.31
67457;BME280;54319;52.038;4.640;2023-03-18T12:01:06;101179.00;;;14.13;74.11
67457;BME280;54319;52.038;4.640;2023-03-18T12:06:40;101176.34;;;14.25;74.31
67457;BME280;54319;52.038;4.640;2023-03-18T12:09:17;101167.63;;;14.46;73.69
67457;BME280;54319;52.038;4.640;2023-03-18T12:11:58;101171.06;;;14.60;72.47
67457;BME280;54319;52.038;4.640;2023-03-18T12:14:32;101177.88;;;14.70;71.97
67457;BME280;54319;52.038;4.640;2023-03-18T12:17:13;101170.81;;;14.81;71.89
67457;BME280;54319;52.038;4.640;2023-03-18T12:22:49;101168.97;;;15.05;70.29
67457;BME280;54319;52.038;4.640;2023-03-18T12:25:30;101164.63;;;14.85;70.14
67457;BME280;54319;52.038;4.640;2023-03-18T12:28:02;101180.19;;;14.73;70.85
67457;BME280;54319;52.038;4.640;2023-03-18T12:30:49;101178.13;;;14.87;71.04
67457;BME280;54319;52.038;4.640;2023-03-18T12:33:32;101176.56;;;14.79;70.37
67457;BME280;54319;52.038;4.640;2023-03-18T12:36:14;101172.88;;;14.67;70.04
67457;BME280;54319;52.038;4.640;2023-03-18T12:38:59;101173.06;;;14.35;70.57
67457;BME280;54319;52.038;4.640;2023-03-18T12:41:36;101163.75;;;14.54;69.30
67457;BME280;54319;52.038;4.640;2023-03-18T12:44:17;101168.16;;;14.55;69.83
67457;BME280;54319;52.038;4.640;2023-03-18T12:46:53;101169.09;;;14.49;69.14
67457;BME280;54319;52.038;4.640;2023-03-18T12:49:25;101173.94;;;14.66;69.68
67457;BME280;54319;52.038;4.640;2023-03-18T12:51:59;101162.44;;;14.57;68.92
67457;BME280;54319;52.038;4.640;2023-03-18T12:54:31;101168.75;;;14.76;69.45
67457;BME280;54319;52.038;4.640;2023-03-18T12:57:03;101168.16;;;15.04;68.46
67457;BME280;54319;52.038;4.640;2023-03-18T12:59:34;101157.91;;;15.12;66.98
67457;BME280;54319;52.038;4.640;2023-03-18T13:02:18;101161.41;;;15.31;66.96
67457;BME280;54319;52.038;4.640;2023-03-18T13:04:50;101160.06;;;15.33;66.71
67457;BME280;54319;52.038;4.640;2023-03-18T13:07:24;101164.63;;;15.52;65.62
67457;BME280;54319;52.038;4.640;2023-03-18T13:09:56;101159.75;;;15.42;65.50
67457;BME280;54319;52.038;4.640;2023-03-18T13:12:29;101156.53;;;15.45;64.72
67457;BME280;54319;52.038;4.640;2023-03-18T13:15:00;101168.84;;;15.66;64.96
67457;BME280;54319;52.038;4.640;2023-03-18T13:17:30;101152.09;;;15.80;63.06